sensor_id;sensor_type;location;lat;lon;timestamp;P1;durP1;ratioP1;P2;durP2;ratioP2
15502;SDS011;7853;52.186;5.948;2023-06-24T11:21:27;4.73;;;3.51;;
15502;SDS011;7853;52.186;5.948;2023-06-24T11:22:24;6.20;;;3.28;;
15502;SDS011;7853;52.186;5.948;2023-06-24T11:23:29;5.85;;;3.31;;
15502;SDS011;7853;52.186;5.948;2023-06-24T11:24:32;5.54;;;3.54;;
15502;SDS011;7853;52.186;5.948;2023-06-24T11:25:37;5.86;;;3.30;;
15502;SDS011;7853;52.186;5.948;2023-06-24T11:26:34;5.23;;;3.51;;
15502;SDS011;7853;52.186;5.948;2023-06-24T11:27:34;5.41;;;3.54;;
15502;SDS011;7853;52.186;5.948;2023-06-24T11:28:34;6.92;;;3.52;;
15502;SDS011;7853;52.186;5.948;2023-06-24T11:29:35;4.50;;;3.40;;
15502;SDS011;7853;52.186;5.948;2023-06-24T11:30:34;5.15;;;3.49;;
15502;SDS011;7853;52.186;5.948;2023-06-24T11:31:35;5.58;;;3.53;;
15502;SDS011;7853;52.186;5.948;2023-06-24T11:32:35;5.16;;;3.51;;
15502;SDS011;7853;52.186;5.948;2023-06-24T11:33:34;4.65;;;3.59;;
15502;SDS011;7853;52.186;5.948;2023-06-24T11:34:35;6.13;;;3.60;;
15502;SDS011;7853;52.186;5.948;2023-06-24T11:35:34;5.53;;;3.61;;
15502;SDS011;7853;52.186;5.948;2023-06-24T11:36:35;5.10;;;3.59;;
15502;SDS011;7853;52.186;5.948;2023-06-24T11:37:35;5.46;;;3.52;;
15502;SDS011;7853;52.186;5.948;2023-06-24T11:38:35;4.26;;;3.54;;
15502;SDS011;7853;52.186;5.948;2023-06-24T11:39:34;5.37;;;3.71;;
15502;SDS011;7853;52.186;5.948;2023-06-24T11:40:35;4.80;;;3.53;;
15502;SDS011;7853;52.186;5.948;2023-06-24T11:41:36;5.50;;;3.56;;
15502;SDS011;7853;52.186;5.948;2023-06-24T11:42:35;6.21;;;3.61;;
15502;SDS011;7853;52.186;5.948;2023-06-24T11:43:34;4.15;;;3.49;;
15502;SDS011;7853;52.186;5.948;2023-06-24T11:44:35;4.70;;;3.82;;
15502;SDS011;7853;52.186;5.948;2023-06-24T11:45:34;5.86;;;3.55;;
15502;SDS011;7853;52.186;5.948;2023-06-24T11:46:34;4.23;;;3.70;;
15502;SDS011;7853;52.186;5.948;2023-06-24T11:47:35;4.46;;;3.59;;
15502;SDS011;7853;52.186;5.948;2023-06-24T11:48:38;5.19;;;3.76;;
15502;SDS011;7853;52.186;5.948;2023-06-24T11:49:47;10.18;;;4.34;;
15502;SDS011;7853;52.186;5.948;2023-06-24T11:50:52;20.69;;;5.96;;
15502;SDS011;7853;52.186;5.948;2023-06-24T11:51:45;15.48;;;5.47;;
15502;SDS011;7853;52.186;5.948;2023-06-24T11:52:38;11.35;;;4.95;;
15502;SDS011;7853;52.186;5.948;2023-06-24T11:53:40;8.33;;;4.21;;
15502;SDS011;7853;52.186;5.948;2023-06-24T11:54:40;10.43;;;4.51;;
15502;SDS011;7853;52.186;5.948;2023-06-24T11:55:34;9.98;;;4.66;;
15502;SDS011;7853;52.186;5.948;2023-06-24T11:56:34;12.22;;;4.76;;
15502;SDS011;7853;52.186;5.948;2023-06-24T11:57:49;11.23;;;4.90;;
15502;SDS011;7853;52.186;5.948;2023-06-24T11:58:49;9.46;;;5.13;;
15502;SDS011;7853;52.186;5.948;2023-06-24T11:59:41;9.41;;;4.80;;
15502;SDS011;7853;52.186;5.948;2023-06-24T12:00:38;12.83;;;5.27;;
15502;SDS011;7853;52.186;5.948;2023-06-24T12:01:35;9.73;;;4.69;;
15502;SDS011;7853;52.186;5.948;2023-06-24T12:02:36;10.57;;;5.28;;
15502;SDS011;7853;52.186;5.948;2023-06-24T12:03:33;11.71;;;5.02;;
15502;SDS011;7853;52.186;5.948;2023-06-24T12:04:33;10.74;;;4.90;;
15502;SDS011;7853;52.186;5.948;2023-06-24T12:05:33;11.41;;;5.17;;
15502;SDS011;7853;52.186;5.948;2023-06-24T12:06:33;12.32;;;4.84;;
15502;SDS011;7853;52.186;5.948;2023-06-24T12:07:33;12.07;;;4.96;;
15502;SDS011;7853;52.186;5.948;2023-06-24T12:08:33;11.36;;;5.36;;
15502;SDS011;7853;52.186;5.948;2023-06-24T12:09:33;13.38;;;5.33;;
15502;SDS011;7853;52.186;5.948;2023-06-24T12:10:33;12.64;;;5.40;;
15502;SDS011;7853;52.186;5.948;2023-06-24T12:11:33;10.18;;;5.19;;
15502;SDS011;7853;52.186;5.948;2023-06-24T12:12:33;10.44;;;5.20;;
15502;SDS011;7853;52.186;5.948;2023-06-24T12:13:33;11.79;;;5.25;;
15502;SDS011;7853;52.186;5.948;2023-06-24T12:14:33;11.35;;;5.48;;
15502;SDS011;7853;52.186;5.948;2023-06-24T12:15:33;10.72;;;5.20;;
15502;SDS011;7853;52.186;5.948;2023-06-24T12:16:33;10.87;;;5.19;;
15502;SDS011;7853;52.186;5.948;2023-06-24T12:17:33;11.65;;;5.15;;
15502;SDS011;7853;52.186;5.948;2023-06-24T12:18:33;12.28;;;5.77;;
15502;SDS011;7853;52.186;5.948;2023-06-24T12:19:33;10.10;;;5.05;;
15502;SDS011;7853;52.186;5.948;2023-06-24T12:20:34;8.53;;;4.62;;
15502;SDS011;7853;52.186;5.948;2023-06-24T12:21:34;9.82;;;4.71;;
15502;SDS011;7853;52.186;5.948;2023-06-24T12:22:34;8.97;;;4.83;;
15502;SDS011;7853;52.186;5.948;2023-06-24T12:23:34;9.74;;;5.02;;
15502;SDS011;7853;52.186;5.948;2023-06-24T12:24:34;9.30;;;4.56;;
15502;SDS011;7853;52.186;5.948;2023-06-24T12:25:34;8.67;;;4.65;;
15502;SDS011;7853;52.186;5.948;2023-06-24T12:26:34;7.96;;;4.98;;
15502;SDS011;7853;52.186;5.948;2023-06-24T12:27:34;9.52;;;4.99;;
15502;SDS011;7853;52.186;5.948;2023-06-24T12:28:34;9.75;;;4.70;;
15502;SDS011;7853;52.186;5.948;2023-06-24T12:29:34;9.34;;;4.66;;
15502;SDS011;7853;52.186;5.948;2023-06-24T12:30:34;8.63;;;4.98;;
15502;SDS011;7853;52.186;5.948;2023-06-24T12:31:34;9.58;;;5.05;;
15502;SDS011;7853;52.186;5.948;2023-06-24T12:32:34;8.12;;;4.76;;
15502;SDS011;7853;52.186;5.948;2023-06-24T12:33:34;10.19;;;4.89;;
15502;SDS011;7853;52.186;5.948;2023-06-24T12:34:34;10.72;;;4.97;;
15502;SDS011;7853;52.186;5.948;2023-06-24T12:35:34;8.36;;;4.92;;
15502;SDS011;7853;52.186;5.948;2023-06-24T12:36:34;10.62;;;5.16;;
15502;SDS011;7853;52.186;5.948;2023-06-24T12:37:34;8.72;;;4.90;;
15502;SDS011;7853;52.186;5.948;2023-06-24T12:38:34;8.70;;;4.76;;
15502;SDS011;7853;52.186;5.948;2023-06-24T12:39:34;9.70;;;4.74;;
15502;SDS011;7853;52.186;5.948;2023-06-24T12:40:34;8.81;;;4.89;;
15502;SDS011;7853;52.186;5.948;2023-06-24T12:41:34;7.91;;;4.83;;
15502;SDS011;7853;52.186;5.948;2023-06-24T12:42:34;8.79;;;4.88;;
15502;SDS011;7853;52.186;5.948;2023-06-24T12:43:34;8.96;;;4.82;;
15502;SDS011;7853;52.186;5.948;2023-06-24T12:44:34;9.19;;;5.04;;
15502;SDS011;7853;52.186;5.948;2023-06-24T12:45:34;8.87;;;4.84;;
15502;SDS011;7853;52.186;5.948;2023-06-24T12:46:34;7.94;;;4.62;;
15502;SDS011;7853;52.186;5.948;2023-06-24T12:47:34;7.41;;;4.40;;
15502;SDS011;7853;52.186;5.948;2023-06-24T12:48:34;7.39;;;4.72;;
15502;SDS011;7853;52.186;5.948;2023-06-24T12:49:34;9.20;;;4.88;;
15502;SDS011;7853;52.186;5.948;2023-06-24T12:50:34;8.32;;;4.70;;
15502;SDS011;7853;52.186;5.948;2023-06-24T12:51:34;8.09;;;4.98;;
15502;SDS011;7853;52.186;5.948;2023-06-24T12:52:34;8.31;;;4.84;;
15502;SDS011;7853;52.186;5.948;2023-06-24T12:53:34;8.02;;;4.77;;
15502;SDS011;7853;52.186;5.948;2023-06-24T12:54:34;8.50;;;5.18;;
15502;SDS011;7853;52.186;5.948;2023-06-24T12:55:34;9.00;;;4.90;;
15502;SDS011;7853;52.186;5.948;2023-06-24T12:56:34;8.68;;;4.96;;
15502;SDS011;7853;52.186;5.948;2023-06-24T12:57:34;9.47;;;5.08;;
15502;SDS011;7853;52.186;5.948;2023-06-24T12:58:34;7.72;;;4.72;;
15502;SDS011;7853;52.186;5.948;2023-06-24T12:59:34;8.45;;;5.00;;
15502;SDS011;7853;52.186;5.948;2023-06-24T13:00:34;8.91;;;5.16;;
15502;SDS011;7853;52.186;5.948;2023-06-24T13:01:34;9.59;;;4.96;;
15502;SDS011;7853;52.186;5.948;2023-06-24T13:02:35;8.63;;;5.04;;
15502;SDS011;7853;52.186;5.948;2023-06-24T13:03:34;8.79;;;5.35;;
15502;SDS011;7853;52.186;5.948;2023-06-24T13:04:34;7.29;;;4.73;;
15502;SDS011;7853;52.186;5.948;2023-06-24T13:05:34;7.99;;;4.71;;
15502;SDS011;7853;52.186;5.948;2023-06-24T13:06:34;8.04;;;4.78;;
15502;SDS011;7853;52.186;5.948;2023-06-24T13:07:35;9.37;;;4.80;;
15502;SDS011;7853;52.186;5.948;2023-06-24T13:08:34;7.18;;;4.62;;
15502;SDS011;7853;52.186;5.948;2023-06-24T13:09:34;7.43;;;4.73;;
15502;SDS011;7853;52.186;5.948;2023-06-24T13:10:34;8.86;;;4.99;;
15502;SDS011;7853;52.186;5.948;2023-06-24T13:11:34;7.61;;;4.85;;
15502;SDS011;7853;52.186;5.948;2023-06-24T13:12:35;10.27;;;5.05;;
15502;SDS011;7853;52.186;5.948;2023-06-24T13:13:35;8.74;;;4.69;;
15502;SDS011;7853;52.186;5.948;2023-06-24T13:14:34;7.48;;;4.58;;
15502;SDS011;7853;52.186;5.948;2023-06-24T13:15:34;7.47;;;4.34;;
15502;SDS011;7853;52.186;5.948;2023-06-24T13:16:35;8.29;;;4.66;;
15502;SDS011;7853;52.186;5.948;2023-06-24T13:17:34;7.64;;;4.81;;
15502;SDS011;7853;52.186;5.948;2023-06-24T13:18:34;8.24;;;4.46;;
15502;SDS011;7853;52.186;5.948;2023-06-24T13:19:34;8.55;;;4.74;;
15502;SDS011;7853;52.186;5.948;2023-06-24T13:20:34;7.87;;;4.61;;
15502;SDS011;7853;52.186;5.948;2023-06-24T13:21:34;8.60;;;4.88;;
15502;SDS011;7853;52.186;5.948;2023-06-24T13:22:34;8.32;;;4.77;;
15502;SDS011;7853;52.186;5.948;2023-06-24T13:23:34;7.51;;;4.91;;
15502;SDS011;7853;52.186;5.948;2023-06-24T13:24:34;8.08;;;4.91;;
15502;SDS011;7853;52.186;5.948;2023-06-24T13:25:36;8.75;;;4.57;;
15502;SDS011;7853;52.186;5.948;2023-06-24T13:26:34;9.46;;;4.51;;
15502;SDS011;7853;52.186;5.948;2023-06-24T13:27:34;6.72;;;4.35;;
15502;SDS011;7853;52.186;5.948;2023-06-24T13:28:34;7.40;;;4.64;;
15502;SDS011;7853;52.186;5.948;2023-06-24T13:29:34;7.88;;;4.82;;
15502;SDS011;7853;52.186;5.948;2023-06-24T13:30:34;6.77;;;4.41;;
15502;SDS011;7853;52.186;5.948;2023-06-24T13:31:34;7.01;;;4.55;;
15502;SDS011;7853;52.186;5.948;2023-06-24T13:32:34;8.07;;;4.80;;
15502;SDS011;7853;52.186;5.948;2023-06-24T13:33:34;7.28;;;4.69;;
15502;SDS011;7853;52.186;5.948;2023-06-24T13:34:34;6.79;;;4.39;;
15502;SDS011;7853;52.186;5.948;2023-06-24T13:35:34;7.24;;;4.56;;
15502;SDS011;7853;52.186;5.948;2023-06-24T13:36:35;8.13;;;4.47;;
15502;SDS011;7853;52.186;5.948;2023-06-24T13:37:34;7.19;;;4.51;;
15502;SDS011;7853;52.186;5.948;2023-06-24T13:38:34;7.84;;;4.58;;
15502;SDS011;7853;52.186;5.948;2023-06-24T13:39:34;6.70;;;4.38;;
15502;SDS011;7853;52.186;5.948;2023-06-24T13:40:34;6.49;;;4.71;;
15502;SDS011;7853;52.186;5.948;2023-06-24T13:41:34;7.72;;;4.42;;
15502;SDS011;7853;52.186;5.948;2023-06-24T13:42:34;8.10;;;4.65;;
15502;SDS011;7853;52.186;5.948;2023-06-24T13:43:34;7.27;;;4.53;;
15502;SDS011;7853;52.186;5.948;2023-06-24T13:44:34;7.11;;;4.40;;
15502;SDS011;7853;52.186;5.948;2023-06-24T13:45:34;6.52;;;4.36;;
15502;SDS011;7853;52.186;5.948;2023-06-24T13:46:35;6.15;;;4.37;;
15502;SDS011;7853;52.186;5.948;2023-06-24T13:47:35;7.26;;;4.42;;
15502;SDS011;7853;52.186;5.948;2023-06-24T13:48:34;6.94;;;4.66;;
15502;SDS011;7853;52.186;5.948;2023-06-24T13:49:35;7.43;;;4.76;;
15502;SDS011;7853;52.186;5.948;2023-06-24T13:50:34;7.19;;;4.49;;
15502;SDS011;7853;52.186;5.948;2023-06-24T13:51:34;7.92;;;4.29;;
15502;SDS011;7853;52.186;5.948;2023-06-24T13:52:34;7.91;;;4.60;;
15502;SDS011;7853;52.186;5.948;2023-06-24T13:53:35;7.23;;;4.47;;
15502;SDS011;7853;52.186;5.948;2023-06-24T13:54:34;7.84;;;4.48;;
15502;SDS011;7853;52.186;5.948;2023-06-24T13:55:34;8.55;;;4.66;;
15502;SDS011;7853;52.186;5.948;2023-06-24T13:56:34;7.25;;;4.42;;
15502;SDS011;7853;52.186;5.948;2023-06-24T13:57:34;6.88;;;4.48;;
15502;SDS011;7853;52.186;5.948;2023-06-24T13:58:34;6.58;;;4.51;;
15502;SDS011;7853;52.186;5.948;2023-06-24T13:59:34;6.63;;;4.56;;
15502;SDS011;7853;52.186;5.948;2023-06-24T14:00:34;6.68;;;4.47;;
15502;SDS011;7853;52.186;5.948;2023-06-24T14:01:34;7.73;;;4.56;;
15502;SDS011;7853;52.186;5.948;2023-06-24T14:02:34;7.45;;;4.56;;
15502;SDS011;7853;52.186;5.948;2023-06-24T14:03:34;8.13;;;4.36;;
15502;SDS011;7853;52.186;5.948;2023-06-24T14:04:35;6.92;;;4.46;;
15502;SDS011;7853;52.186;5.948;2023-06-24T14:05:35;6.50;;;4.54;;
15502;SDS011;7853;52.186;5.948;2023-06-24T14:06:35;8.09;;;4.53;;
15502;SDS011;7853;52.186;5.948;2023-06-24T14:07:34;7.07;;;4.73;;
15502;SDS011;7853;52.186;5.948;2023-06-24T14:08:35;7.25;;;4.11;;
15502;SDS011;7853;52.186;5.948;2023-06-24T14:09:35;6.85;;;4.51;;
15502;SDS011;7853;52.186;5.948;2023-06-24T14:10:34;6.67;;;4.37;;
15502;SDS011;7853;52.186;5.948;2023-06-24T14:11:34;7.31;;;4.70;;
15502;SDS011;7853;52.186;5.948;2023-06-24T14:12:34;6.91;;;4.59;;
15502;SDS011;7853;52.186;5.948;2023-06-24T14:13:34;5.58;;;4.17;;
15502;SDS011;7853;52.186;5.948;2023-06-24T14:14:35;6.64;;;4.49;;
15502;SDS011;7853;52.186;5.948;2023-06-24T14:15:34;5.68;;;4.23;;
15502;SDS011;7853;52.186;5.948;2023-06-24T14:16:34;6.30;;;4.22;;
15502;SDS011;7853;52.186;5.948;2023-06-24T14:17:34;6.24;;;4.36;;
15502;SDS011;7853;52.186;5.948;2023-06-24T14:18:34;5.75;;;4.10;;
15502;SDS011;7853;52.186;5.948;2023-06-24T14:19:34;6.08;;;4.23;;
15502;SDS011;7853;52.186;5.948;2023-06-24T14:20:35;6.75;;;4.43;;
15502;SDS011;7853;52.186;5.948;2023-06-24T14:21:34;6.21;;;4.12;;
15502;SDS011;7853;52.186;5.948;2023-06-24T14:22:34;7.57;;;4.61;;
15502;SDS011;7853;52.186;5.948;2023-06-24T14:23:35;6.84;;;4.21;;
15502;SDS011;7853;52.186;5.948;2023-06-24T14:24:35;6.26;;;4.17;;
15502;SDS011;7853;52.186;5.948;2023-06-24T14:25:34;6.74;;;4.44;;
15502;SDS011;7853;52.186;5.948;2023-06-24T14:26:34;5.72;;;4.42;;
15502;SDS011;7853;52.186;5.948;2023-06-24T14:27:34;5.29;;;4.11;;
15502;SDS011;7853;52.186;5.948;2023-06-24T14:28:34;5.94;;;4.17;;
15502;SDS011;7853;52.186;5.948;2023-06-24T14:29:35;7.37;;;4.68;;
15502;SDS011;7853;52.186;5.948;2023-06-24T14:30:34;6.93;;;4.30;;
15502;SDS011;7853;52.186;5.948;2023-06-24T14:31:34;6.21;;;4.23;;
15502;SDS011;7853;52.186;5.948;2023-06-24T14:32:34;6.72;;;4.57;;
15502;SDS011;7853;52.186;5.948;2023-06-24T14:33:34;6.77;;;4.22;;
15502;SDS011;7853;52.186;5.948;2023-06-24T14:34:34;6.25;;;4.48;;
15502;SDS011;7853;52.186;5.948;2023-06-24T14:35:35;6.42;;;4.48;;
15502;SDS011;7853;52.186;5.948;2023-06-24T14:36:35;5.59;;;4.29;;
15502;SDS011;7853;52.186;5.948;2023-06-24T14:37:34;5.85;;;4.18;;
15502;SDS011;7853;52.186;5.948;2023-06-24T14:38:34;5.94;;;4.21;;
15502;SDS011;7853;52.186;5.948;2023-06-24T14:39:34;6.35;;;4.31;;
15502;SDS011;7853;52.186;5.948;2023-06-24T14:40:35;6.03;;;4.34;;
15502;SDS011;7853;52.186;5.948;2023-06-24T14:41:34;6.05;;;4.28;;
15502;SDS011;7853;52.186;5.948;2023-06-24T14:42:35;6.16;;;4.33;;
15502;SDS011;7853;52.186;5.948;2023-06-24T14:43:34;5.80;;;4.36;;
15502;SDS011;7853;52.186;5.948;2023-06-24T14:44:34;6.24;;;4.41;;
15502;SDS011;7853;52.186;5.948;2023-06-24T14:45:35;6.14;;;4.23;;
15502;SDS011;7853;52.186;5.948;2023-06-24T14:46:34;5.60;;;4.18;;
15502;SDS011;7853;52.186;5.948;2023-06-24T14:47:35;5.69;;;4.24;;
15502;SDS011;7853;52.186;5.948;2023-06-24T14:48:34;5.95;;;4.20;;
15502;SDS011;7853;52.186;5.948;2023-06-24T14:49:34;6.26;;;4.38;;
15502;SDS011;7853;52.186;5.948;2023-06-24T14:50:34;5.54;;;4.20;;
15502;SDS011;7853;52.186;5.948;2023-06-24T14:51:34;6.09;;;3.99;;
15502;SDS011;7853;52.186;5.948;2023-06-24T14:52:34;5.67;;;4.13;;
15502;SDS011;7853;52.186;5.948;2023-06-24T14:53:34;6.02;;;4.26;;
15502;SDS011;7853;52.186;5.948;2023-06-24T14:54:34;5.83;;;4.37;;
15502;SDS011;7853;52.186;5.948;2023-06-24T14:55:34;5.61;;;4.15;;
15502;SDS011;7853;52.186;5.948;2023-06-24T14:56:34;5.85;;;4.37;;
15502;SDS011;7853;52.186;5.948;2023-06-24T14:57:35;4.88;;;4.17;;
15502;SDS011;7853;52.186;5.948;2023-06-24T14:58:35;5.66;;;4.11;;
15502;SDS011;7853;52.186;5.948;2023-06-24T14:59:34;6.00;;;4.11;;
15502;SDS011;7853;52.186;5.948;2023-06-24T15:00:34;6.00;;;4.22;;
15502;SDS011;7853;52.186;5.948;2023-06-24T15:01:34;6.31;;;4.26;;
15502;SDS011;7853;52.186;5.948;2023-06-24T15:02:34;5.12;;;3.90;;
15502;SDS011;7853;52.186;5.948;2023-06-24T15:03:34;6.13;;;4.05;;
15502;SDS011;7853;52.186;5.948;2023-06-24T15:04:35;6.22;;;3.90;;
15502;SDS011;7853;52.186;5.948;2023-06-24T15:05:35;5.65;;;3.95;;
15502;SDS011;7853;52.186;5.948;2023-06-24T15:13:24;5.49;;;3.91;;
15502;SDS011;7853;52.186;5.948;2023-06-24T15:15:39;4.73;;;3.75;;
15502;SDS011;7853;52.186;5.948;2023-06-24T15:16:37;9.05;;;3.87;;
15502;SDS011;7853;52.186;5.948;2023-06-24T15:17:36;5.81;;;3.73;;
15502;SDS011;7853;52.186;5.948;2023-06-24T15:18:43;5.84;;;4.21;;
15502;SDS011;7853;52.186;5.948;2023-06-24T15:19:35;5.13;;;4.00;;
15502;SDS011;7853;52.186;5.948;2023-06-24T15:20:35;5.72;;;3.81;;
15502;SDS011;7853;52.186;5.948;2023-06-24T15:21:35;5.62;;;3.80;;
15502;SDS011;7853;52.186;5.948;2023-06-24T15:22:35;7.16;;;4.15;;
15502;SDS011;7853;52.186;5.948;2023-06-24T15:23:35;4.63;;;3.77;;
15502;SDS011;7853;52.186;5.948;2023-06-24T15:24:35;5.72;;;4.07;;
15502;SDS011;7853;52.186;5.948;2023-06-24T15:25:34;5.44;;;4.00;;
15502;SDS011;7853;52.186;5.948;2023-06-24T15:26:34;5.67;;;4.22;;
15502;SDS011;7853;52.186;5.948;2023-06-24T15:27:34;5.87;;;4.21;;
15502;SDS011;7853;52.186;5.948;2023-06-24T15:28:34;6.36;;;4.41;;
15502;SDS011;7853;52.186;5.948;2023-06-24T15:29:35;6.10;;;4.39;;
15502;SDS011;7853;52.186;5.948;2023-06-24T15:30:35;5.64;;;4.36;;
15502;SDS011;7853;52.186;5.948;2023-06-24T15:31:35;5.85;;;4.42;;
15502;SDS011;7853;52.186;5.948;2023-06-24T15:32:34;6.04;;;4.86;;
15502;SDS011;7853;52.186;5.948;2023-06-24T15:33:35;6.13;;;4.75;;
15502;SDS011;7853;52.186;5.948;2023-06-24T15:34:35;5.81;;;4.54;;
15502;SDS011;7853;52.186;5.948;2023-06-24T15:35:35;6.33;;;4.77;;
15502;SDS011;7853;52.186;5.948;2023-06-24T15:36:34;6.78;;;4.84;;
15502;SDS011;7853;52.186;5.948;2023-06-24T15:37:34;6.43;;;4.97;;
15502;SDS011;7853;52.186;5.948;2023-06-24T15:38:35;6.49;;;4.88;;
15502;SDS011;7853;52.186;5.948;2023-06-24T15:39:35;7.44;;;4.89;;
15502;SDS011;7853;52.186;5.948;2023-06-24T15:40:35;7.41;;;5.17;;
15502;SDS011;7853;52.186;5.948;2023-06-24T15:41:35;6.74;;;5.19;;
15502;SDS011;7853;52.186;5.948;2023-06-24T15:42:34;6.25;;;4.83;;
15502;SDS011;7853;52.186;5.948;2023-06-24T15:43:35;6.82;;;5.31;;
15502;SDS011;7853;52.186;5.948;2023-06-24T15:44:34;7.33;;;4.97;;
15502;SDS011;7853;52.186;5.948;2023-06-24T15:45:35;7.94;;;5.47;;
15502;SDS011;7853;52.186;5.948;2023-06-24T15:46:35;6.22;;;4.99;;
15502;SDS011;7853;52.186;5.948;2023-06-24T15:47:34;7.95;;;5.02;;
15502;SDS011;7853;52.186;5.948;2023-06-24T15:48:34;7.54;;;5.17;;
15502;SDS011;7853;52.186;5.948;2023-06-24T15:49:34;7.46;;;5.25;;
15502;SDS011;7853;52.186;5.948;2023-06-24T15:50:34;6.84;;;5.56;;
15502;SDS011;7853;52.186;5.948;2023-06-24T15:51:34;7.67;;;5.28;;
15502;SDS011;7853;52.186;5.948;2023-06-24T15:52:35;7.02;;;5.49;;
15502;SDS011;7853;52.186;5.948;2023-06-24T15:53:34;6.20;;;5.19;;
15502;SDS011;7853;52.186;5.948;2023-06-24T15:54:34;7.13;;;5.01;;
15502;SDS011;7853;52.186;5.948;2023-06-24T15:55:34;6.87;;;5.31;;
15502;SDS011;7853;52.186;5.948;2023-06-24T15:56:35;7.26;;;5.34;;
15502;SDS011;7853;52.186;5.948;2023-06-24T15:57:34;7.10;;;5.32;;
15502;SDS011;7853;52.186;5.948;2023-06-24T15:58:34;6.50;;;5.17;;
15502;SDS011;7853;52.186;5.948;2023-06-24T15:59:34;7.81;;;5.20;;
15502;SDS011;7853;52.186;5.948;2023-06-24T16:00:34;6.76;;;5.48;;
15502;SDS011;7853;52.186;5.948;2023-06-24T16:01:34;7.22;;;5.35;;
15502;SDS011;7853;52.186;5.948;2023-06-24T16:02:35;6.94;;;5.26;;
15502;SDS011;7853;52.186;5.948;2023-06-24T16:03:34;7.15;;;5.30;;
15502;SDS011;7853;52.186;5.948;2023-06-24T16:04:34;7.42;;;5.24;;
15502;SDS011;7853;52.186;5.948;2023-06-24T16:05:34;6.01;;;5.17;;
15502;SDS011;7853;52.186;5.948;2023-06-24T16:06:35;6.35;;;5.17;;
15502;SDS011;7853;52.186;5.948;2023-06-24T16:07:35;6.94;;;5.24;;
15502;SDS011;7853;52.186;5.948;2023-06-24T16:08:34;6.47;;;5.16;;
15502;SDS011;7853;52.186;5.948;2023-06-24T16:09:34;6.58;;;5.24;;
15502;SDS011;7853;52.186;5.948;2023-06-24T16:10:34;5.88;;;5.12;;
15502;SDS011;7853;52.186;5.948;2023-06-24T16:11:34;7.13;;;5.34;;
15502;SDS011;7853;52.186;5.948;2023-06-24T16:12:34;6.85;;;5.20;;
15502;SDS011;7853;52.186;5.948;2023-06-24T16:13:35;6.41;;;5.38;;
15502;SDS011;7853;52.186;5.948;2023-06-24T16:14:34;8.72;;;5.05;;
15502;SDS011;7853;52.186;5.948;2023-06-24T16:15:34;6.96;;;4.92;;
15502;SDS011;7853;52.186;5.948;2023-06-24T16:16:34;7.33;;;5.30;;
15502;SDS011;7853;52.186;5.948;2023-06-24T16:17:34;7.81;;;5.04;;
15502;SDS011;7853;52.186;5.948;2023-06-24T16:18:34;8.24;;;5.25;;
15502;SDS011;7853;52.186;5.948;2023-06-24T16:19:34;7.67;;;5.24;;
15502;SDS011;7853;52.186;5.948;2023-06-24T16:20:34;7.13;;;4.78;;
15502;SDS011;7853;52.186;5.948;2023-06-24T16:21:34;6.78;;;4.99;;
15502;SDS011;7853;52.186;5.948;2023-06-24T16:22:34;8.70;;;5.04;;
15502;SDS011;7853;52.186;5.948;2023-06-24T16:23:35;7.29;;;5.18;;
15502;SDS011;7853;52.186;5.948;2023-06-24T16:24:34;9.27;;;5.19;;
15502;SDS011;7853;52.186;5.948;2023-06-24T16:25:34;8.22;;;5.27;;
15502;SDS011;7853;52.186;5.948;2023-06-24T16:26:34;7.99;;;5.50;;
15502;SDS011;7853;52.186;5.948;2023-06-24T16:27:34;11.02;;;5.60;;
15502;SDS011;7853;52.186;5.948;2023-06-24T16:28:35;8.79;;;5.19;;
15502;SDS011;7853;52.186;5.948;2023-06-24T16:29:34;7.43;;;5.23;;
15502;SDS011;7853;52.186;5.948;2023-06-24T16:30:34;7.49;;;5.41;;
15502;SDS011;7853;52.186;5.948;2023-06-24T16:31:34;8.03;;;5.40;;
15502;SDS011;7853;52.186;5.948;2023-06-24T16:32:35;9.24;;;5.40;;
15502;SDS011;7853;52.186;5.948;2023-06-24T16:33:34;6.87;;;5.05;;
15502;SDS011;7853;52.186;5.948;2023-06-24T16:34:34;7.27;;;5.25;;
15502;SDS011;7853;52.186;5.948;2023-06-24T16:35:34;8.18;;;5.69;;
15502;SDS011;7853;52.186;5.948;2023-06-24T16:36:34;7.66;;;5.65;;
15502;SDS011;7853;52.186;5.948;2023-06-24T16:37:34;7.00;;;5.30;;
15502;SDS011;7853;52.186;5.948;2023-06-24T16:38:34;7.38;;;5.28;;
15502;SDS011;7853;52.186;5.948;2023-06-24T16:39:35;7.41;;;5.42;;
15502;SDS011;7853;52.186;5.948;2023-06-24T16:40:34;7.05;;;5.52;;
15502;SDS011;7853;52.186;5.948;2023-06-24T16:41:34;6.63;;;5.63;;
15502;SDS011;7853;52.186;5.948;2023-06-24T16:42:34;6.87;;;5.07;;
15502;SDS011;7853;52.186;5.948;2023-06-24T16:43:34;7.50;;;5.69;;
15502;SDS011;7853;52.186;5.948;2023-06-24T16:44:34;7.70;;;5.26;;
15502;SDS011;7853;52.186;5.948;2023-06-24T16:45:34;7.67;;;5.66;;
15502;SDS011;7853;52.186;5.948;2023-06-24T16:46:34;7.22;;;5.20;;
15502;SDS011;7853;52.186;5.948;2023-06-24T16:47:34;6.32;;;5.30;;
15502;SDS011;7853;52.186;5.948;2023-06-24T16:48:34;6.89;;;5.34;;
15502;SDS011;7853;52.186;5.948;2023-06-24T16:49:34;6.57;;;5.09;;
15502;SDS011;7853;52.186;5.948;2023-06-24T16:50:34;7.29;;;5.47;;
15502;SDS011;7853;52.186;5.948;2023-06-24T16:51:35;6.97;;;5.21;;
15502;SDS011;7853;52.186;5.948;2023-06-24T16:52:34;7.89;;;5.06;;
15502;SDS011;7853;52.186;5.948;2023-06-24T16:53:34;6.67;;;4.84;;
15502;SDS011;7853;52.186;5.948;2023-06-24T16:54:34;7.25;;;5.44;;
15502;SDS011;7853;52.186;5.948;2023-06-24T16:55:35;7.51;;;5.40;;
15502;SDS011;7853;52.186;5.948;2023-06-24T16:56:34;7.69;;;5.61;;
15502;SDS011;7853;52.186;5.948;2023-06-24T16:57:34;7.79;;;5.37;;
15502;SDS011;7853;52.186;5.948;2023-06-24T16:58:34;7.36;;;5.27;;
15502;SDS011;7853;52.186;5.948;2023-06-24T16:59:34;6.25;;;5.25;;
15502;SDS011;7853;52.186;5.948;2023-06-24T17:00:34;6.78;;;5.41;;
15502;SDS011;7853;52.186;5.948;2023-06-24T17:01:34;6.52;;;5.38;;
15502;SDS011;7853;52.186;5.948;2023-06-24T17:02:34;6.57;;;5.31;;
15502;SDS011;7853;52.186;5.948;2023-06-24T17:03:34;7.37;;;5.35;;
15502;SDS011;7853;52.186;5.948;2023-06-24T17:04:34;7.63;;;5.43;;
15502;SDS011;7853;52.186;5.948;2023-06-24T17:05:34;6.95;;;5.46;;
15502;SDS011;7853;52.186;5.948;2023-06-24T17:06:34;7.93;;;5.58;;
15502;SDS011;7853;52.186;5.948;2023-06-24T17:07:34;7.68;;;5.89;;
15502;SDS011;7853;52.186;5.948;2023-06-24T17:08:34;7.51;;;5.36;;
15502;SDS011;7853;52.186;5.948;2023-06-24T17:09:34;6.93;;;5.41;;
15502;SDS011;7853;52.186;5.948;2023-06-24T17:10:35;6.66;;;5.46;;
15502;SDS011;7853;52.186;5.948;2023-06-24T17:11:34;6.81;;;5.43;;
15502;SDS011;7853;52.186;5.948;2023-06-24T17:12:34;6.28;;;5.26;;
15502;SDS011;7853;52.186;5.948;2023-06-24T17:13:34;6.71;;;5.32;;
15502;SDS011;7853;52.186;5.948;2023-06-24T17:14:34;7.89;;;5.52;;
15502;SDS011;7853;52.186;5.948;2023-06-24T17:15:34;8.53;;;5.96;;
15502;SDS011;7853;52.186;5.948;2023-06-24T17:16:34;7.37;;;5.63;;
15502;SDS011;7853;52.186;5.948;2023-06-24T17:17:34;7.50;;;5.82;;
15502;SDS011;7853;52.186;5.948;2023-06-24T17:18:35;7.22;;;5.73;;
15502;SDS011;7853;52.186;5.948;2023-06-24T17:19:34;7.78;;;5.70;;
15502;SDS011;7853;52.186;5.948;2023-06-24T17:20:34;7.71;;;6.04;;
15502;SDS011;7853;52.186;5.948;2023-06-24T17:21:35;7.98;;;6.02;;
15502;SDS011;7853;52.186;5.948;2023-06-24T17:22:34;7.40;;;5.76;;
15502;SDS011;7853;52.186;5.948;2023-06-24T17:23:35;9.92;;;6.08;;
15502;SDS011;7853;52.186;5.948;2023-06-24T17:24:34;8.67;;;6.65;;
15502;SDS011;7853;52.186;5.948;2023-06-24T17:25:35;8.90;;;6.06;;
15502;SDS011;7853;52.186;5.948;2023-06-24T17:26:34;8.84;;;5.88;;
15502;SDS011;7853;52.186;5.948;2023-06-24T17:27:35;8.23;;;6.04;;
15502;SDS011;7853;52.186;5.948;2023-06-24T17:28:34;8.70;;;5.82;;
15502;SDS011;7853;52.186;5.948;2023-06-24T17:29:35;8.20;;;5.78;;
15502;SDS011;7853;52.186;5.948;2023-06-24T17:30:34;7.03;;;5.54;;
15502;SDS011;7853;52.186;5.948;2023-06-24T17:31:34;6.69;;;5.58;;
15502;SDS011;7853;52.186;5.948;2023-06-24T17:32:35;7.60;;;5.80;;
15502;SDS011;7853;52.186;5.948;2023-06-24T17:33:34;8.44;;;5.82;;
15502;SDS011;7853;52.186;5.948;2023-06-24T17:34:35;7.92;;;5.69;;
15502;SDS011;7853;52.186;5.948;2023-06-24T17:35:35;7.60;;;5.86;;